sensor_id;sensor_type;location;lat;lon;timestamp;P1;durP1;ratioP1;P2;durP2;ratioP2
16407;SDS011;8313;49.894;8.084;2023-05-10T00:00:42;2.10;;;0.80;;
16407;SDS011;8313;49.894;8.084;2023-05-10T00:03:08;1.37;;;0.77;;
16407;SDS011;8313;49.894;8.084;2023-05-10T00:05:33;0.70;;;0.70;;
16407;SDS011;8313;49.894;8.084;2023-05-10T00:07:59;0.70;;;0.70;;
16407;SDS011;8313;49.894;8.084;2023-05-10T00:10:25;0.70;;;0.63;;
16407;SDS011;8313;49.894;8.084;2023-05-10T00:12:50;1.60;;;0.80;;
16407;SDS011;8313;49.894;8.084;2023-05-10T00:15:16;2.87;;;1.23;;
16407;SDS011;8313;49.894;8.084;2023-05-10T00:17:41;0.60;;;0.50;;
16407;SDS011;8313;49.894;8.084;2023-05-10T00:20:07;0.60;;;0.60;;
16407;SDS011;8313;49.894;8.084;2023-05-10T00:22:33;0.90;;;0.77;;
16407;SDS011;8313;49.894;8.084;2023-05-10T00:24:59;0.70;;;0.53;;
16407;SDS011;8313;49.894;8.084;2023-05-10T00:27:25;2.17;;;0.70;;
16407;SDS011;8313;49.894;8.084;2023-05-10T00:29:50;0.63;;;0.63;;
16407;SDS011;8313;49.894;8.084;2023-05-10T00:32:16;0.70;;;0.70;;
16407;SDS011;8313;49.894;8.084;2023-05-10T00:34:42;0.73;;;0.70;;
16407;SDS011;8313;49.894;8.084;2023-05-10T00:37:07;1.17;;;0.73;;
16407;SDS011;8313;49.894;8.084;2023-05-10T00:39:33;0.70;;;0.60;;
16407;SDS011;8313;49.894;8.084;2023-05-10T00:41:59;0.67;;;0.67;;
16407;SDS011;8313;49.894;8.084;2023-05-10T00:44:26;0.60;;;0.60;;
16407;SDS011;8313;49.894;8.084;2023-05-10T00:46:51;0.50;;;0.50;;
16407;SDS011;8313;49.894;8.084;2023-05-10T00:49:18;0.53;;;0.53;;
16407;SDS011;8313;49.894;8.084;2023-05-10T00:51:45;0.70;;;0.60;;
16407;SDS011;8313;49.894;8.084;2023-05-10T00:54:11;0.70;;;0.60;;
16407;SDS011;8313;49.894;8.084;2023-05-10T00:56:38;0.90;;;0.90;;
16407;SDS011;8313;49.894;8.084;2023-05-10T00:59:05;0.60;;;0.60;;
16407;SDS011;8313;49.894;8.084;2023-05-10T01:01:31;0.67;;;0.67;;
16407;SDS011;8313;49.894;8.084;2023-05-10T01:03:57;0.70;;;0.70;;
16407;SDS011;8313;49.894;8.084;2023-05-10T01:06:23;3.03;;;0.83;;
16407;SDS011;8313;49.894;8.084;2023-05-10T01:08:51;0.90;;;0.70;;
16407;SDS011;8313;49.894;8.084;2023-05-10T01:11:16;0.50;;;0.50;;
16407;SDS011;8313;49.894;8.084;2023-05-10T01:13:42;0.50;;;0.47;;
16407;SDS011;8313;49.894;8.084;2023-05-10T01:16:10;0.80;;;0.80;;
16407;SDS011;8313;49.894;8.084;2023-05-10T01:18:38;1.23;;;0.53;;
16407;SDS011;8313;49.894;8.084;2023-05-10T01:21:17;0.73;;;0.73;;
16407;SDS011;8313;49.894;8.084;2023-05-10T01:34:25;0.70;;;0.70;;
16407;SDS011;8313;49.894;8.084;2023-05-10T01:39:47;2.30;;;0.77;;
16407;SDS011;8313;49.894;8.084;2023-05-10T01:42:21;0.50;;;0.43;;
16407;SDS011;8313;49.894;8.084;2023-05-10T01:44:54;2.67;;;2.00;;
16407;SDS011;8313;49.894;8.084;2023-05-10T01:50:29;0.80;;;0.67;;
16407;SDS011;8313;49.894;8.084;2023-05-10T01:52:56;1.37;;;0.80;;
16407;SDS011;8313;49.894;8.084;2023-05-10T01:55:25;0.70;;;0.70;;
16407;SDS011;8313;49.894;8.084;2023-05-10T01:58:02;0.80;;;0.80;;
16407;SDS011;8313;49.894;8.084;2023-05-10T02:00:34;1.33;;;0.60;;
16407;SDS011;8313;49.894;8.084;2023-05-10T02:03:01;0.60;;;0.60;;
16407;SDS011;8313;49.894;8.084;2023-05-10T02:05:30;1.10;;;0.80;;
16407;SDS011;8313;49.894;8.084;2023-05-10T02:07:58;1.83;;;0.70;;
16407;SDS011;8313;49.894;8.084;2023-05-10T02:10:26;0.73;;;0.73;;
16407;SDS011;8313;49.894;8.084;2023-05-10T02:12:53;1.07;;;0.90;;
16407;SDS011;8313;49.894;8.084;2023-05-10T02:15:23;0.60;;;0.60;;
16407;SDS011;8313;49.894;8.084;2023-05-10T02:17:51;2.73;;;0.80;;
16407;SDS011;8313;49.894;8.084;2023-05-10T02:20:19;0.90;;;0.80;;
16407;SDS011;8313;49.894;8.084;2023-05-10T02:22:47;0.50;;;0.50;;
16407;SDS011;8313;49.894;8.084;2023-05-10T02:25:15;0.80;;;0.70;;
16407;SDS011;8313;49.894;8.084;2023-05-10T02:27:43;0.70;;;0.70;;
16407;SDS011;8313;49.894;8.084;2023-05-10T02:30:10;1.07;;;0.90;;
16407;SDS011;8313;49.894;8.084;2023-05-10T02:32:36;2.70;;;0.90;;
16407;SDS011;8313;49.894;8.084;2023-05-10T02:35:03;1.00;;;0.87;;
16407;SDS011;8313;49.894;8.084;2023-05-10T02:37:30;0.90;;;0.90;;
16407;SDS011;8313;49.894;8.084;2023-05-10T02:39:57;0.70;;;0.70;;
16407;SDS011;8313;49.894;8.084;2023-05-10T02:42:25;0.70;;;0.70;;
16407;SDS011;8313;49.894;8.084;2023-05-10T02:44:53;1.03;;;0.93;;
16407;SDS011;8313;49.894;8.084;2023-05-10T02:47:27;1.00;;;0.97;;
16407;SDS011;8313;49.894;8.084;2023-05-10T02:49:56;1.07;;;0.97;;
16407;SDS011;8313;49.894;8.084;2023-05-10T02:52:23;1.10;;;1.00;;
16407;SDS011;8313;49.894;8.084;2023-05-10T02:54:52;0.87;;;0.87;;
16407;SDS011;8313;49.894;8.084;2023-05-10T02:57:22;1.03;;;1.03;;
16407;SDS011;8313;49.894;8.084;2023-05-10T02:59:52;1.23;;;1.13;;
16407;SDS011;8313;49.894;8.084;2023-05-10T03:02:18;1.70;;;1.33;;
16407;SDS011;8313;49.894;8.084;2023-05-10T03:04:45;0.87;;;0.87;;
16407;SDS011;8313;49.894;8.084;2023-05-10T03:07:10;1.40;;;1.30;;
16407;SDS011;8313;49.894;8.084;2023-05-10T03:09:36;1.00;;;1.00;;
16407;SDS011;8313;49.894;8.084;2023-05-10T03:12:14;0.90;;;0.90;;
16407;SDS011;8313;49.894;8.084;2023-05-10T03:20:11;1.07;;;1.07;;
16407;SDS011;8313;49.894;8.084;2023-05-10T03:22:44;1.10;;;1.10;;
16407;SDS011;8313;49.894;8.084;2023-05-10T03:25:12;1.30;;;1.20;;
16407;SDS011;8313;49.894;8.084;2023-05-10T03:27:41;1.30;;;1.20;;
16407;SDS011;8313;49.894;8.084;2023-05-10T03:30:12;1.33;;;1.23;;
16407;SDS011;8313;49.894;8.084;2023-05-10T03:32:38;1.20;;;1.10;;
16407;SDS011;8313;49.894;8.084;2023-05-10T03:35:08;1.20;;;1.20;;
16407;SDS011;8313;49.894;8.084;2023-05-10T03:37:35;1.20;;;1.10;;
16407;SDS011;8313;49.894;8.084;2023-05-10T03:40:01;0.93;;;0.93;;
16407;SDS011;8313;49.894;8.084;2023-05-10T03:42:29;1.23;;;1.13;;
16407;SDS011;8313;49.894;8.084;2023-05-10T03:44:55;0.97;;;0.97;;
16407;SDS011;8313;49.894;8.084;2023-05-10T03:47:21;1.20;;;1.10;;
16407;SDS011;8313;49.894;8.084;2023-05-10T03:49:47;1.60;;;1.50;;
16407;SDS011;8313;49.894;8.084;2023-05-10T03:52:12;1.50;;;1.33;;
16407;SDS011;8313;49.894;8.084;2023-05-10T03:54:38;1.47;;;1.37;;
16407;SDS011;8313;49.894;8.084;2023-05-10T03:57:04;0.90;;;0.90;;
16407;SDS011;8313;49.894;8.084;2023-05-10T03:59:30;1.10;;;0.90;;
16407;SDS011;8313;49.894;8.084;2023-05-10T04:01:56;0.90;;;0.90;;
16407;SDS011;8313;49.894;8.084;2023-05-10T04:04:22;1.93;;;1.77;;
16407;SDS011;8313;49.894;8.084;2023-05-10T04:06:49;2.80;;;1.57;;
16407;SDS011;8313;49.894;8.084;2023-05-10T04:09:14;1.93;;;1.50;;
16407;SDS011;8313;49.894;8.084;2023-05-10T04:11:41;1.47;;;1.37;;
16407;SDS011;8313;49.894;8.084;2023-05-10T04:14:07;3.03;;;1.30;;
16407;SDS011;8313;49.894;8.084;2023-05-10T04:16:33;2.77;;;1.70;;
16407;SDS011;8313;49.894;8.084;2023-05-10T04:18:59;1.73;;;1.50;;
16407;SDS011;8313;49.894;8.084;2023-05-10T04:21:25;1.80;;;1.70;;
16407;SDS011;8313;49.894;8.084;2023-05-10T04:23:51;1.73;;;1.43;;
16407;SDS011;8313;49.894;8.084;2023-05-10T04:26:16;4.90;;;1.87;;
16407;SDS011;8313;49.894;8.084;2023-05-10T04:28:42;1.57;;;1.47;;
16407;SDS011;8313;49.894;8.084;2023-05-10T04:31:09;1.67;;;1.57;;
16407;SDS011;8313;49.894;8.084;2023-05-10T04:33:35;1.77;;;1.67;;
16407;SDS011;8313;49.894;8.084;2023-05-10T04:36:01;2.00;;;1.90;;
16407;SDS011;8313;49.894;8.084;2023-05-10T04:38:27;5.23;;;1.80;;
16407;SDS011;8313;49.894;8.084;2023-05-10T04:40:53;2.00;;;1.80;;
16407;SDS011;8313;49.894;8.084;2023-05-10T04:43:19;2.63;;;2.00;;
16407;SDS011;8313;49.894;8.084;2023-05-10T04:45:45;2.80;;;2.23;;
16407;SDS011;8313;49.894;8.084;2023-05-10T04:48:11;2.47;;;1.97;;
16407;SDS011;8313;49.894;8.084;2023-05-10T04:50:37;2.30;;;2.10;;
16407;SDS011;8313;49.894;8.084;2023-05-10T04:53:04;2.60;;;1.73;;
16407;SDS011;8313;49.894;8.084;2023-05-10T04:55:29;1.60;;;1.50;;
16407;SDS011;8313;49.894;8.084;2023-05-10T04:57:55;2.40;;;2.10;;
16407;SDS011;8313;49.894;8.084;2023-05-10T05:00:22;2.50;;;1.67;;
16407;SDS011;8313;49.894;8.084;2023-05-10T05:02:48;2.03;;;1.90;;
16407;SDS011;8313;49.894;8.084;2023-05-10T05:05:14;2.90;;;1.97;;
16407;SDS011;8313;49.894;8.084;2023-05-10T05:07:39;2.20;;;2.03;;
16407;SDS011;8313;49.894;8.084;2023-05-10T05:10:06;6.47;;;2.50;;
16407;SDS011;8313;49.894;8.084;2023-05-10T05:12:32;2.53;;;1.97;;
16407;SDS011;8313;49.894;8.084;2023-05-10T05:14:58;2.23;;;2.00;;
16407;SDS011;8313;49.894;8.084;2023-05-10T05:17:23;2.20;;;2.00;;
16407;SDS011;8313;49.894;8.084;2023-05-10T05:19:49;2.33;;;2.07;;
16407;SDS011;8313;49.894;8.084;2023-05-10T05:22:15;2.50;;;2.20;;
16407;SDS011;8313;49.894;8.084;2023-05-10T05:24:41;2.10;;;1.90;;
16407;SDS011;8313;49.894;8.084;2023-05-10T05:27:06;3.87;;;2.40;;
16407;SDS011;8313;49.894;8.084;2023-05-10T05:29:32;2.63;;;2.33;;
16407;SDS011;8313;49.894;8.084;2023-05-10T05:31:58;2.23;;;2.03;;
16407;SDS011;8313;49.894;8.084;2023-05-10T05:34:24;2.90;;;1.70;;
16407;SDS011;8313;49.894;8.084;2023-05-10T05:36:50;2.37;;;2.17;;
16407;SDS011;8313;49.894;8.084;2023-05-10T05:39:16;3.27;;;2.20;;
16407;SDS011;8313;49.894;8.084;2023-05-10T05:41:42;2.07;;;1.87;;
16407;SDS011;8313;49.894;8.084;2023-05-10T05:44:08;3.17;;;1.90;;
16407;SDS011;8313;49.894;8.084;2023-05-10T05:46:35;4.40;;;2.30;;
16407;SDS011;8313;49.894;8.084;2023-05-10T05:49:00;4.43;;;2.40;;
16407;SDS011;8313;49.894;8.084;2023-05-10T05:51:26;2.37;;;2.17;;
16407;SDS011;8313;49.894;8.084;2023-05-10T05:53:52;2.80;;;2.33;;
16407;SDS011;8313;49.894;8.084;2023-05-10T05:56:18;2.67;;;2.00;;
16407;SDS011;8313;49.894;8.084;2023-05-10T05:58:49;5.27;;;2.70;;
16407;SDS011;8313;49.894;8.084;2023-05-10T06:01:15;2.40;;;2.20;;
16407;SDS011;8313;49.894;8.084;2023-05-10T06:03:41;4.97;;;2.20;;
16407;SDS011;8313;49.894;8.084;2023-05-10T06:06:07;3.77;;;3.40;;
16407;SDS011;8313;49.894;8.084;2023-05-10T06:08:33;2.60;;;2.27;;
16407;SDS011;8313;49.894;8.084;2023-05-10T06:10:59;2.90;;;1.80;;
16407;SDS011;8313;49.894;8.084;2023-05-10T06:13:25;5.90;;;2.30;;
16407;SDS011;8313;49.894;8.084;2023-05-10T06:15:57;1.93;;;1.80;;
16407;SDS011;8313;49.894;8.084;2023-05-10T06:18:23;3.33;;;2.20;;
16407;SDS011;8313;49.894;8.084;2023-05-10T06:20:49;4.00;;;2.63;;
16407;SDS011;8313;49.894;8.084;2023-05-10T06:23:15;2.80;;;2.13;;
16407;SDS011;8313;49.894;8.084;2023-05-10T06:25:41;3.47;;;2.73;;
16407;SDS011;8313;49.894;8.084;2023-05-10T06:28:06;4.33;;;2.87;;
16407;SDS011;8313;49.894;8.084;2023-05-10T06:30:32;3.33;;;2.17;;
16407;SDS011;8313;49.894;8.084;2023-05-10T06:32:58;2.30;;;2.10;;
16407;SDS011;8313;49.894;8.084;2023-05-10T06:35:23;2.30;;;2.10;;
16407;SDS011;8313;49.894;8.084;2023-05-10T06:37:49;3.50;;;2.57;;
16407;SDS011;8313;49.894;8.084;2023-05-10T06:40:16;4.90;;;2.30;;
16407;SDS011;8313;49.894;8.084;2023-05-10T06:42:42;2.60;;;2.40;;
16407;SDS011;8313;49.894;8.084;2023-05-10T06:45:08;5.53;;;2.30;;
16407;SDS011;8313;49.894;8.084;2023-05-10T06:47:34;2.70;;;2.30;;
16407;SDS011;8313;49.894;8.084;2023-05-10T06:50:00;3.00;;;2.67;;
16407;SDS011;8313;49.894;8.084;2023-05-10T06:52:26;2.73;;;2.53;;
16407;SDS011;8313;49.894;8.084;2023-05-10T06:54:51;2.77;;;2.20;;
16407;SDS011;8313;49.894;8.084;2023-05-10T06:57:17;3.57;;;2.67;;
16407;SDS011;8313;49.894;8.084;2023-05-10T06:59:43;2.20;;;2.00;;
16407;SDS011;8313;49.894;8.084;2023-05-10T07:02:08;1.97;;;1.80;;
16407;SDS011;8313;49.894;8.084;2023-05-10T07:04:34;3.93;;;2.70;;
16407;SDS011;8313;49.894;8.084;2023-05-10T07:07:00;3.00;;;2.70;;
16407;SDS011;8313;49.894;8.084;2023-05-10T07:09:25;2.80;;;2.20;;
16407;SDS011;8313;49.894;8.084;2023-05-10T07:11:51;2.47;;;2.27;;
16407;SDS011;8313;49.894;8.084;2023-05-10T07:14:17;3.30;;;2.50;;
16407;SDS011;8313;49.894;8.084;2023-05-10T07:16:42;3.50;;;2.83;;
16407;SDS011;8313;49.894;8.084;2023-05-10T07:19:09;4.00;;;2.57;;
16407;SDS011;8313;49.894;8.084;2023-05-10T07:21:35;2.90;;;2.13;;
16407;SDS011;8313;49.894;8.084;2023-05-10T07:24:01;2.13;;;2.03;;
16407;SDS011;8313;49.894;8.084;2023-05-10T07:26:27;2.60;;;2.40;;
16407;SDS011;8313;49.894;8.084;2023-05-10T07:28:54;2.07;;;1.97;;
16407;SDS011;8313;49.894;8.084;2023-05-10T07:31:19;2.13;;;1.93;;
16407;SDS011;8313;49.894;8.084;2023-05-10T07:33:45;1.67;;;1.57;;
16407;SDS011;8313;49.894;8.084;2023-05-10T07:36:11;2.33;;;2.23;;
16407;SDS011;8313;49.894;8.084;2023-05-10T07:38:36;2.90;;;2.10;;
16407;SDS011;8313;49.894;8.084;2023-05-10T07:41:02;2.00;;;1.90;;
16407;SDS011;8313;49.894;8.084;2023-05-10T07:43:28;7.17;;;2.40;;
16407;SDS011;8313;49.894;8.084;2023-05-10T07:45:53;1.73;;;1.60;;
16407;SDS011;8313;49.894;8.084;2023-05-10T07:48:19;4.20;;;1.90;;
16407;SDS011;8313;49.894;8.084;2023-05-10T07:50:45;7.73;;;2.50;;
16407;SDS011;8313;49.894;8.084;2023-05-10T07:53:10;4.00;;;2.10;;
16407;SDS011;8313;49.894;8.084;2023-05-10T07:55:36;1.80;;;1.70;;
16407;SDS011;8313;49.894;8.084;2023-05-10T07:58:01;1.83;;;1.73;;
16407;SDS011;8313;49.894;8.084;2023-05-10T08:00:27;1.70;;;1.60;;
16407;SDS011;8313;49.894;8.084;2023-05-10T08:02:53;2.23;;;1.57;;
16407;SDS011;8313;49.894;8.084;2023-05-10T08:05:18;2.30;;;2.10;;
16407;SDS011;8313;49.894;8.084;2023-05-10T08:07:44;1.90;;;1.43;;
16407;SDS011;8313;49.894;8.084;2023-05-10T08:10:10;2.60;;;1.90;;
16407;SDS011;8313;49.894;8.084;2023-05-10T08:12:38;2.33;;;1.63;;
16407;SDS011;8313;49.894;8.084;2023-05-10T08:15:04;1.73;;;1.63;;
16407;SDS011;8313;49.894;8.084;2023-05-10T08:17:31;2.03;;;1.60;;
16407;SDS011;8313;49.894;8.084;2023-05-10T08:19:57;1.60;;;1.50;;
16407;SDS011;8313;49.894;8.084;2023-05-10T08:22:23;1.73;;;1.53;;
16407;SDS011;8313;49.894;8.084;2023-05-10T08:24:48;1.50;;;1.40;;
16407;SDS011;8313;49.894;8.084;2023-05-10T08:27:14;1.50;;;1.40;;
16407;SDS011;8313;49.894;8.084;2023-05-10T08:29:40;1.40;;;1.30;;
16407;SDS011;8313;49.894;8.084;2023-05-10T08:32:05;1.47;;;1.20;;
16407;SDS011;8313;49.894;8.084;2023-05-10T08:34:31;1.07;;;1.03;;
16407;SDS011;8313;49.894;8.084;2023-05-10T08:36:57;1.10;;;1.00;;
16407;SDS011;8313;49.894;8.084;2023-05-10T08:39:22;1.40;;;1.30;;
16407;SDS011;8313;49.894;8.084;2023-05-10T08:41:48;1.30;;;1.20;;
16407;SDS011;8313;49.894;8.084;2023-05-10T08:44:19;0.90;;;0.90;;
16407;SDS011;8313;49.894;8.084;2023-05-10T08:46:46;1.17;;;1.13;;
16407;SDS011;8313;49.894;8.084;2023-05-10T08:49:16;1.30;;;1.20;;
16407;SDS011;8313;49.894;8.084;2023-05-10T08:51:44;1.20;;;0.90;;
16407;SDS011;8313;49.894;8.084;2023-05-10T08:54:14;1.00;;;0.83;;
16407;SDS011;8313;49.894;8.084;2023-05-10T08:56:40;1.07;;;1.07;;
16407;SDS011;8313;49.894;8.084;2023-05-10T08:59:06;1.13;;;1.00;;
16407;SDS011;8313;49.894;8.084;2023-05-10T09:01:32;0.90;;;0.90;;
16407;SDS011;8313;49.894;8.084;2023-05-10T09:04:01;1.23;;;1.13;;
16407;SDS011;8313;49.894;8.084;2023-05-10T09:06:28;0.90;;;0.90;;
16407;SDS011;8313;49.894;8.084;2023-05-10T09:08:54;1.07;;;1.07;;
16407;SDS011;8313;49.894;8.084;2023-05-10T09:11:20;0.97;;;0.80;;
16407;SDS011;8313;49.894;8.084;2023-05-10T09:13:46;1.83;;;1.03;;
16407;SDS011;8313;49.894;8.084;2023-05-10T09:16:14;1.27;;;1.17;;
16407;SDS011;8313;49.894;8.084;2023-05-10T09:18:40;1.00;;;1.00;;
16407;SDS011;8313;49.894;8.084;2023-05-10T09:21:05;1.27;;;1.00;;
16407;SDS011;8313;49.894;8.084;2023-05-10T09:23:31;1.40;;;1.30;;
16407;SDS011;8313;49.894;8.084;2023-05-10T09:26:06;1.20;;;1.10;;
16407;SDS011;8313;49.894;8.084;2023-05-10T09:31:22;1.43;;;1.33;;
16407;SDS011;8313;49.894;8.084;2023-05-10T09:33:49;1.57;;;1.30;;
16407;SDS011;8313;49.894;8.084;2023-05-10T09:36:15;1.13;;;0.90;;
16407;SDS011;8313;49.894;8.084;2023-05-10T09:41:21;1.30;;;1.30;;
16407;SDS011;8313;49.894;8.084;2023-05-10T09:43:48;1.00;;;1.00;;
16407;SDS011;8313;49.894;8.084;2023-05-10T09:46:14;0.93;;;0.93;;
16407;SDS011;8313;49.894;8.084;2023-05-10T09:48:43;1.00;;;1.00;;
16407;SDS011;8313;49.894;8.084;2023-05-10T09:51:10;2.53;;;1.30;;
16407;SDS011;8313;49.894;8.084;2023-05-10T09:53:43;0.83;;;0.83;;
16407;SDS011;8313;49.894;8.084;2023-05-10T09:56:09;1.47;;;1.37;;
16407;SDS011;8313;49.894;8.084;2023-05-10T09:58:36;1.20;;;1.10;;
16407;SDS011;8313;49.894;8.084;2023-05-10T10:01:03;1.00;;;0.90;;
16407;SDS011;8313;49.894;8.084;2023-05-10T10:03:29;1.60;;;1.50;;
16407;SDS011;8313;49.894;8.084;2023-05-10T10:05:55;1.13;;;1.03;;
16407;SDS011;8313;49.894;8.084;2023-05-10T10:08:21;1.20;;;1.10;;
16407;SDS011;8313;49.894;8.084;2023-05-10T10:10:47;1.70;;;1.53;;
16407;SDS011;8313;49.894;8.084;2023-05-10T10:13:14;2.03;;;1.73;;
16407;SDS011;8313;49.894;8.084;2023-05-10T10:15:40;1.43;;;1.33;;
16407;SDS011;8313;49.894;8.084;2023-05-10T10:18:07;1.43;;;1.30;;
16407;SDS011;8313;49.894;8.084;2023-05-10T10:20:37;1.07;;;1.07;;
16407;SDS011;8313;49.894;8.084;2023-05-10T10:23:03;1.43;;;1.30;;
16407;SDS011;8313;49.894;8.084;2023-05-10T10:25:28;4.60;;;1.30;;
16407;SDS011;8313;49.894;8.084;2023-05-10T10:35:43;1.03;;;1.00;;
16407;SDS011;8313;49.894;8.084;2023-05-10T10:38:11;0.90;;;0.90;;
16407;SDS011;8313;49.894;8.084;2023-05-10T10:40:38;1.10;;;1.10;;
16407;SDS011;8313;49.894;8.084;2023-05-10T10:43:25;0.90;;;0.90;;
16407;SDS011;8313;49.894;8.084;2023-05-10T10:48:49;0.83;;;0.83;;
16407;SDS011;8313;49.894;8.084;2023-05-10T10:51:36;1.27;;;1.17;;
16407;SDS011;8313;49.894;8.084;2023-05-10T10:54:11;1.33;;;1.23;;
16407;SDS011;8313;49.894;8.084;2023-05-10T10:56:37;0.97;;;0.97;;
16407;SDS011;8313;49.894;8.084;2023-05-10T10:59:03;1.07;;;0.80;;
16407;SDS011;8313;49.894;8.084;2023-05-10T11:01:32;1.00;;;1.00;;
16407;SDS011;8313;49.894;8.084;2023-05-10T11:09:00;1.03;;;1.00;;
16407;SDS011;8313;49.894;8.084;2023-05-10T11:11:34;1.57;;;1.00;;
16407;SDS011;8313;49.894;8.084;2023-05-10T11:14:20;1.00;;;1.00;;
16407;SDS011;8313;49.894;8.084;2023-05-10T11:16:49;1.93;;;0.93;;
16407;SDS011;8313;49.894;8.084;2023-05-10T11:19:16;0.80;;;0.80;;
16407;SDS011;8313;49.894;8.084;2023-05-10T11:24:20;1.13;;;1.13;;
16407;SDS011;8313;49.894;8.084;2023-05-10T11:26:49;1.17;;;0.80;;
16407;SDS011;8313;49.894;8.084;2023-05-10T11:29:15;1.60;;;1.50;;
16407;SDS011;8313;49.894;8.084;2023-05-10T11:31:44;1.13;;;0.87;;
16407;SDS011;8313;49.894;8.084;2023-05-10T11:34:11;1.07;;;1.07;;
16407;SDS011;8313;49.894;8.084;2023-05-10T11:36:50;1.00;;;1.00;;
16407;SDS011;8313;49.894;8.084;2023-05-10T11:39:16;1.47;;;1.07;;
16407;SDS011;8313;49.894;8.084;2023-05-10T11:41:42;2.77;;;1.00;;
16407;SDS011;8313;49.894;8.084;2023-05-10T11:44:08;2.00;;;1.03;;
16407;SDS011;8313;49.894;8.084;2023-05-10T11:46:34;0.80;;;0.80;;
16407;SDS011;8313;49.894;8.084;2023-05-10T11:49:02;1.07;;;0.97;;
16407;SDS011;8313;49.894;8.084;2023-05-10T11:51:29;1.50;;;1.30;;
16407;SDS011;8313;49.894;8.084;2023-05-10T11:53:59;1.73;;;1.20;;
16407;SDS011;8313;49.894;8.084;2023-05-10T11:56:24;1.10;;;0.90;;
16407;SDS011;8313;49.894;8.084;2023-05-10T11:58:53;2.10;;;1.00;;
16407;SDS011;8313;49.894;8.084;2023-05-10T12:01:21;0.90;;;0.90;;
16407;SDS011;8313;49.894;8.084;2023-05-10T12:03:48;0.90;;;0.90;;
16407;SDS011;8313;49.894;8.084;2023-05-10T12:06:15;2.83;;;1.10;;
16407;SDS011;8313;49.894;8.084;2023-05-10T12:08:44;0.70;;;0.70;;
16407;SDS011;8313;49.894;8.084;2023-05-10T12:11:12;0.90;;;0.90;;
16407;SDS011;8313;49.894;8.084;2023-05-10T12:13:41;3.00;;;0.90;;
16407;SDS011;8313;49.894;8.084;2023-05-10T12:16:15;1.17;;;1.10;;
16407;SDS011;8313;49.894;8.084;2023-05-10T12:18:42;1.03;;;0.93;;
16407;SDS011;8313;49.894;8.084;2023-05-10T12:21:12;1.13;;;1.00;;
16407;SDS011;8313;49.894;8.084;2023-05-10T12:23:38;0.80;;;0.80;;
16407;SDS011;8313;49.894;8.084;2023-05-10T12:26:04;0.90;;;0.90;;
16407;SDS011;8313;49.894;8.084;2023-05-10T12:28:31;1.53;;;1.23;;
16407;SDS011;8313;49.894;8.084;2023-05-10T12:30:58;1.20;;;1.10;;
16407;SDS011;8313;49.894;8.084;2023-05-10T12:33:25;2.90;;;1.13;;
16407;SDS011;8313;49.894;8.084;2023-05-10T12:35:54;2.20;;;1.10;;
16407;SDS011;8313;49.894;8.084;2023-05-10T12:40:57;1.77;;;1.57;;
16407;SDS011;8313;49.894;8.084;2023-05-10T12:43:24;3.60;;;1.27;;
16407;SDS011;8313;49.894;8.084;2023-05-10T12:45:50;2.93;;;1.20;;
16407;SDS011;8313;49.894;8.084;2023-05-10T12:48:16;1.60;;;1.23;;
16407;SDS011;8313;49.894;8.084;2023-05-10T12:50:41;1.00;;;1.00;;
16407;SDS011;8313;49.894;8.084;2023-05-10T12:53:07;1.43;;;1.30;;
16407;SDS011;8313;49.894;8.084;2023-05-10T12:55:32;2.40;;;1.43;;
16407;SDS011;8313;49.894;8.084;2023-05-10T12:57:58;1.13;;;1.07;;
16407;SDS011;8313;49.894;8.084;2023-05-10T13:00:24;1.33;;;1.23;;
16407;SDS011;8313;49.894;8.084;2023-05-10T13:02:49;1.33;;;1.23;;
16407;SDS011;8313;49.894;8.084;2023-05-10T13:05:15;1.17;;;1.17;;
16407;SDS011;8313;49.894;8.084;2023-05-10T13:07:41;1.83;;;1.30;;
16407;SDS011;8313;49.894;8.084;2023-05-10T13:10:08;1.43;;;1.33;;
16407;SDS011;8313;49.894;8.084;2023-05-10T13:12:35;1.30;;;1.13;;
16407;SDS011;8313;49.894;8.084;2023-05-10T13:15:01;2.03;;;1.70;;
16407;SDS011;8313;49.894;8.084;2023-05-10T13:17:28;4.53;;;1.17;;
16407;SDS011;8313;49.894;8.084;2023-05-10T13:19:55;4.80;;;1.33;;
16407;SDS011;8313;49.894;8.084;2023-05-10T13:22:21;1.00;;;1.00;;
16407;SDS011;8313;49.894;8.084;2023-05-10T13:24:46;1.43;;;1.20;;
16407;SDS011;8313;49.894;8.084;2023-05-10T13:27:12;1.37;;;1.30;;
16407;SDS011;8313;49.894;8.084;2023-05-10T13:29:38;1.57;;;1.30;;
16407;SDS011;8313;49.894;8.084;2023-05-10T13:32:03;1.70;;;1.60;;
16407;SDS011;8313;49.894;8.084;2023-05-10T13:34:29;1.50;;;1.40;;
16407;SDS011;8313;49.894;8.084;2023-05-10T13:36:55;1.20;;;1.10;;
16407;SDS011;8313;49.894;8.084;2023-05-10T13:39:21;1.20;;;1.20;;
16407;SDS011;8313;49.894;8.084;2023-05-10T13:41:47;3.63;;;1.70;;
16407;SDS011;8313;49.894;8.084;2023-05-10T13:44:13;1.70;;;1.60;;
16407;SDS011;8313;49.894;8.084;2023-05-10T13:46:42;1.70;;;1.27;;
16407;SDS011;8313;49.894;8.084;2023-05-10T13:49:08;1.60;;;1.50;;
16407;SDS011;8313;49.894;8.084;2023-05-10T13:51:34;1.50;;;1.40;;
16407;SDS011;8313;49.894;8.084;2023-05-10T13:54:01;1.40;;;1.30;;
16407;SDS011;8313;49.894;8.084;2023-05-10T13:56:27;1.20;;;1.20;;
16407;SDS011;8313;49.894;8.084;2023-05-10T13:58:53;1.80;;;1.70;;
16407;SDS011;8313;49.894;8.084;2023-05-10T14:01:18;2.27;;;1.43;;
16407;SDS011;8313;49.894;8.084;2023-05-10T14:03:44;1.30;;;1.20;;
16407;SDS011;8313;49.894;8.084;2023-05-10T14:06:10;2.77;;;2.57;;
16407;SDS011;8313;49.894;8.084;2023-05-10T14:08:36;2.30;;;1.80;;
16407;SDS011;8313;49.894;8.084;2023-05-10T14:11:01;1.87;;;1.47;;
16407;SDS011;8313;49.894;8.084;2023-05-10T14:13:27;2.03;;;1.37;;
16407;SDS011;8313;49.894;8.084;2023-05-10T14:15:53;2.27;;;1.87;;
16407;SDS011;8313;49.894;8.084;2023-05-10T14:18:19;1.57;;;1.47;;
16407;SDS011;8313;49.894;8.084;2023-05-10T14:20:45;1.83;;;1.43;;
16407;SDS011;8313;49.894;8.084;2023-05-10T14:23:11;1.73;;;1.63;;
16407;SDS011;8313;49.894;8.084;2023-05-10T14:25:37;2.03;;;1.77;;
16407;SDS011;8313;49.894;8.084;2023-05-10T14:28:06;1.63;;;1.53;;
16407;SDS011;8313;49.894;8.084;2023-05-10T14:30:32;2.50;;;1.70;;
16407;SDS011;8313;49.894;8.084;2023-05-10T14:33:01;3.20;;;1.50;;
16407;SDS011;8313;49.894;8.084;2023-05-10T14:35:28;2.03;;;1.60;;
16407;SDS011;8313;49.894;8.084;2023-05-10T14:37:56;1.93;;;1.73;;
16407;SDS011;8313;49.894;8.084;2023-05-10T14:40:21;2.73;;;1.60;;
16407;SDS011;8313;49.894;8.084;2023-05-10T14:42:47;2.17;;;1.70;;
16407;SDS011;8313;49.894;8.084;2023-05-10T14:45:13;1.70;;;1.60;;
16407;SDS011;8313;49.894;8.084;2023-05-10T14:47:39;1.70;;;1.60;;
16407;SDS011;8313;49.894;8.084;2023-05-10T14:50:05;1.73;;;1.63;;
16407;SDS011;8313;49.894;8.084;2023-05-10T14:52:31;3.73;;;1.70;;
16407;SDS011;8313;49.894;8.084;2023-05-10T14:54:56;2.60;;;1.67;;
16407;SDS011;8313;49.894;8.084;2023-05-10T14:57:24;1.83;;;1.67;;
16407;SDS011;8313;49.894;8.084;2023-05-10T14:59:49;1.50;;;1.23;;
16407;SDS011;8313;49.894;8.084;2023-05-10T15:02:15;1.57;;;1.47;;
16407;SDS011;8313;49.894;8.084;2023-05-10T15:04:41;2.33;;;2.00;;
16407;SDS011;8313;49.894;8.084;2023-05-10T15:07:06;3.17;;;1.90;;
16407;SDS011;8313;49.894;8.084;2023-05-10T15:09:32;2.77;;;1.70;;
16407;SDS011;8313;49.894;8.084;2023-05-10T15:11:58;1.80;;;1.70;;
16407;SDS011;8313;49.894;8.084;2023-05-10T15:14:23;2.20;;;2.00;;
16407;SDS011;8313;49.894;8.084;2023-05-10T15:16:49;3.60;;;2.13;;
16407;SDS011;8313;49.894;8.084;2023-05-10T15:19:15;1.27;;;1.17;;
16407;SDS011;8313;49.894;8.084;2023-05-10T15:21:41;1.20;;;1.20;;
16407;SDS011;8313;49.894;8.084;2023-05-10T15:24:09;1.63;;;1.53;;
16407;SDS011;8313;49.894;8.084;2023-05-10T15:26:34;1.40;;;1.30;;
16407;SDS011;8313;49.894;8.084;2023-05-10T15:29:00;2.43;;;1.60;;
16407;SDS011;8313;49.894;8.084;2023-05-10T15:31:26;2.33;;;2.00;;
16407;SDS011;8313;49.894;8.084;2023-05-10T15:33:55;2.80;;;1.90;;
16407;SDS011;8313;49.894;8.084;2023-05-10T15:36:23;4.37;;;3.23;;
16407;SDS011;8313;49.894;8.084;2023-05-10T15:38:48;4.20;;;3.07;;
16407;SDS011;8313;49.894;8.084;2023-05-10T15:41:14;5.13;;;3.40;;
16407;SDS011;8313;49.894;8.084;2023-05-10T15:43:39;4.33;;;3.13;;
16407;SDS011;8313;49.894;8.084;2023-05-10T15:46:05;3.53;;;2.97;;